sensor_id;sensor_type;location;lat;lon;timestamp;P1;durP1;ratioP1;P2;durP2;ratioP2
64395;SDS011;50717;53.360;6.290;2022-08-11T00:00:12;14.02;;;8.48;;
64395;SDS011;50717;53.360;6.290;2022-08-11T00:02:38;12.38;;;8.10;;
64395;SDS011;50717;53.360;6.290;2022-08-11T00:05:17;12.23;;;7.85;;
64395;SDS011;50717;53.360;6.290;2022-08-11T00:10:18;11.63;;;7.82;;
64395;SDS011;50717;53.360;6.290;2022-08-11T00:13:19;11.00;;;7.72;;
64395;SDS011;50717;53.360;6.290;2022-08-11T00:15:40;9.95;;;7.93;;
64395;SDS011;50717;53.360;6.290;2022-08-11T00:18:09;12.40;;;7.53;;
64395;SDS011;50717;53.360;6.290;2022-08-11T00:20:37;12.98;;;7.32;;
64395;SDS011;50717;53.360;6.290;2022-08-11T00:23:10;12.75;;;7.45;;
64395;SDS011;50717;53.360;6.290;2022-08-11T00:25:45;16.70;;;8.63;;
64395;SDS011;50717;53.360;6.290;2022-08-11T00:28:27;13.40;;;7.57;;
64395;SDS011;50717;53.360;6.290;2022-08-11T00:30:56;11.63;;;7.05;;
64395;SDS011;50717;53.360;6.290;2022-08-11T00:33:24;10.57;;;6.90;;
64395;SDS011;50717;53.360;6.290;2022-08-11T00:35:56;10.43;;;6.82;;
64395;SDS011;50717;53.360;6.290;2022-08-11T00:38:25;8.30;;;6.30;;
64395;SDS011;50717;53.360;6.290;2022-08-11T00:41:00;11.05;;;6.80;;
64395;SDS011;50717;53.360;6.290;2022-08-11T00:44:02;10.65;;;6.22;;
64395;SDS011;50717;53.360;6.290;2022-08-11T01:09:26;12.73;;;6.70;;
64395;SDS011;50717;53.360;6.290;2022-08-11T01:17:48;8.63;;;6.15;;
64395;SDS011;50717;53.360;6.290;2022-08-11T01:31:45;13.73;;;6.72;;
64395;SDS011;50717;53.360;6.290;2022-08-11T01:37:37;8.07;;;6.70;;
64395;SDS011;50717;53.360;6.290;2022-08-11T01:47:01;14.65;;;6.53;;
64395;SDS011;50717;53.360;6.290;2022-08-11T01:59:04;11.95;;;7.18;;
64395;SDS011;50717;53.360;6.290;2022-08-11T02:01:37;15.50;;;7.32;;
64395;SDS011;50717;53.360;6.290;2022-08-11T02:12:52;11.13;;;7.57;;
64395;SDS011;50717;53.360;6.290;2022-08-11T02:20:26;11.30;;;7.93;;
64395;SDS011;50717;53.360;6.290;2022-08-11T02:23:27;13.30;;;7.47;;
64395;SDS011;50717;53.360;6.290;2022-08-11T02:29:10;10.70;;;7.75;;
64395;SDS011;50717;53.360;6.290;2022-08-11T03:02:22;17.45;;;10.57;;
64395;SDS011;50717;53.360;6.290;2022-08-11T03:10:43;16.80;;;10.05;;
64395;SDS011;50717;53.360;6.290;2022-08-11T03:13:41;21.40;;;10.07;;
64395;SDS011;50717;53.360;6.290;2022-08-11T03:16:37;20.50;;;12.00;;
64395;SDS011;50717;53.360;6.290;2022-08-11T03:22:18;17.80;;;12.02;;
64395;SDS011;50717;53.360;6.290;2022-08-11T03:24:59;17.98;;;11.75;;
64395;SDS011;50717;53.360;6.290;2022-08-11T03:27:43;19.75;;;11.85;;
64395;SDS011;50717;53.360;6.290;2022-08-11T03:30:26;18.30;;;11.77;;
64395;SDS011;50717;53.360;6.290;2022-08-11T03:38:45;20.75;;;11.60;;
64395;SDS011;50717;53.360;6.290;2022-08-11T03:47:00;19.80;;;12.82;;
64395;SDS011;50717;53.360;6.290;2022-08-11T03:52:52;19.98;;;12.73;;
64395;SDS011;50717;53.360;6.290;2022-08-11T04:14:25;16.45;;;11.15;;
64395;SDS011;50717;53.360;6.290;2022-08-11T04:20:28;20.98;;;11.00;;
64395;SDS011;50717;53.360;6.290;2022-08-11T04:31:34;17.33;;;11.30;;
64395;SDS011;50717;53.360;6.290;2022-08-11T04:37:27;18.20;;;12.35;;
64395;SDS011;50717;53.360;6.290;2022-08-11T04:45:39;24.40;;;14.52;;
64395;SDS011;50717;53.360;6.290;2022-08-11T04:57:18;20.85;;;14.30;;
64395;SDS011;50717;53.360;6.290;2022-08-11T05:00:11;25.48;;;16.23;;
64395;SDS011;50717;53.360;6.290;2022-08-11T05:11:35;22.08;;;14.70;;
64395;SDS011;50717;53.360;6.290;2022-08-11T05:17:03;22.10;;;15.57;;
64395;SDS011;50717;53.360;6.290;2022-08-11T05:19:53;27.17;;;15.75;;
64395;SDS011;50717;53.360;6.290;2022-08-11T05:22:37;24.17;;;15.18;;
64395;SDS011;50717;53.360;6.290;2022-08-11T05:25:30;27.30;;;16.85;;
64395;SDS011;50717;53.360;6.290;2022-08-11T05:28:32;23.58;;;15.80;;
64395;SDS011;50717;53.360;6.290;2022-08-11T05:31:21;29.75;;;15.85;;
64395;SDS011;50717;53.360;6.290;2022-08-11T05:34:19;24.35;;;15.90;;
64395;SDS011;50717;53.360;6.290;2022-08-11T05:40:10;24.38;;;15.43;;
64395;SDS011;50717;53.360;6.290;2022-08-11T05:42:59;22.02;;;15.02;;
64395;SDS011;50717;53.360;6.290;2022-08-11T05:45:55;25.77;;;15.52;;
64395;SDS011;50717;53.360;6.290;2022-08-11T05:48:41;18.83;;;13.47;;
64395;SDS011;50717;53.360;6.290;2022-08-11T05:51:36;24.13;;;14.00;;
64395;SDS011;50717;53.360;6.290;2022-08-11T05:54:23;23.02;;;13.75;;
64395;SDS011;50717;53.360;6.290;2022-08-11T05:57:09;21.15;;;14.18;;
64395;SDS011;50717;53.360;6.290;2022-08-11T05:59:57;19.67;;;13.52;;
64395;SDS011;50717;53.360;6.290;2022-08-11T06:02:46;21.48;;;13.65;;
64395;SDS011;50717;53.360;6.290;2022-08-11T06:05:14;19.90;;;12.77;;
64395;SDS011;50717;53.360;6.290;2022-08-11T06:07:41;19.95;;;13.18;;
64395;SDS011;50717;53.360;6.290;2022-08-11T06:10:08;18.23;;;12.50;;
64395;SDS011;50717;53.360;6.290;2022-08-11T06:12:35;20.60;;;13.13;;
64395;SDS011;50717;53.360;6.290;2022-08-11T06:15:04;22.42;;;12.85;;
64395;SDS011;50717;53.360;6.290;2022-08-11T06:17:34;19.10;;;12.38;;
64395;SDS011;50717;53.360;6.290;2022-08-11T06:20:08;21.80;;;12.82;;
64395;SDS011;50717;53.360;6.290;2022-08-11T06:22:36;17.85;;;11.63;;
64395;SDS011;50717;53.360;6.290;2022-08-11T06:25:04;16.40;;;11.45;;
64395;SDS011;50717;53.360;6.290;2022-08-11T06:27:33;14.55;;;10.80;;
64395;SDS011;50717;53.360;6.290;2022-08-11T06:30:01;16.08;;;10.90;;
64395;SDS011;50717;53.360;6.290;2022-08-11T06:32:38;13.90;;;10.65;;
64395;SDS011;50717;53.360;6.290;2022-08-11T06:35:18;18.13;;;10.48;;
64395;SDS011;50717;53.360;6.290;2022-08-11T06:43:43;14.80;;;9.05;;
64395;SDS011;50717;53.360;6.290;2022-08-11T06:46:14;12.90;;;8.55;;
64395;SDS011;50717;53.360;6.290;2022-08-11T06:48:47;14.23;;;8.23;;
64395;SDS011;50717;53.360;6.290;2022-08-11T06:51:14;11.35;;;7.97;;
64395;SDS011;50717;53.360;6.290;2022-08-11T06:53:50;12.25;;;8.40;;
64395;SDS011;50717;53.360;6.290;2022-08-11T06:56:31;10.23;;;7.85;;
64395;SDS011;50717;53.360;6.290;2022-08-11T06:59:18;11.00;;;7.70;;
64395;SDS011;50717;53.360;6.290;2022-08-11T07:02:14;16.52;;;8.55;;
64395;SDS011;50717;53.360;6.290;2022-08-11T07:05:07;12.52;;;7.60;;
64395;SDS011;50717;53.360;6.290;2022-08-11T07:14:22;8.63;;;6.65;;
64395;SDS011;50717;53.360;6.290;2022-08-11T07:17:10;12.27;;;6.95;;
64395;SDS011;50717;53.360;6.290;2022-08-11T07:19:46;9.82;;;6.47;;
64395;SDS011;50717;53.360;6.290;2022-08-11T07:22:43;10.55;;;7.07;;
64395;SDS011;50717;53.360;6.290;2022-08-11T07:25:33;11.55;;;6.45;;
64395;SDS011;50717;53.360;6.290;2022-08-11T07:28:25;12.13;;;6.25;;
64395;SDS011;50717;53.360;6.290;2022-08-11T07:31:23;8.05;;;6.28;;
64395;SDS011;50717;53.360;6.290;2022-08-11T07:36:58;16.10;;;5.88;;
64395;SDS011;50717;53.360;6.290;2022-08-11T07:39:31;8.57;;;5.85;;
64395;SDS011;50717;53.360;6.290;2022-08-11T07:41:58;10.07;;;5.65;;
64395;SDS011;50717;53.360;6.290;2022-08-11T07:44:28;9.15;;;4.90;;
64395;SDS011;50717;53.360;6.290;2022-08-11T07:46:55;9.10;;;6.38;;
64395;SDS011;50717;53.360;6.290;2022-08-11T07:49:39;6.75;;;5.00;;
64395;SDS011;50717;53.360;6.290;2022-08-11T07:52:28;10.00;;;4.85;;
64395;SDS011;50717;53.360;6.290;2022-08-11T07:55:05;7.72;;;4.13;;
64395;SDS011;50717;53.360;6.290;2022-08-11T07:57:31;9.15;;;4.40;;
64395;SDS011;50717;53.360;6.290;2022-08-11T08:00:17;6.65;;;4.65;;
64395;SDS011;50717;53.360;6.290;2022-08-11T08:03:03;8.20;;;4.25;;
64395;SDS011;50717;53.360;6.290;2022-08-11T08:05:48;6.97;;;4.53;;
64395;SDS011;50717;53.360;6.290;2022-08-11T08:08:33;7.03;;;4.22;;
64395;SDS011;50717;53.360;6.290;2022-08-11T08:11:19;6.07;;;3.90;;
64395;SDS011;50717;53.360;6.290;2022-08-11T08:14:06;10.07;;;4.07;;
64395;SDS011;50717;53.360;6.290;2022-08-11T08:16:52;7.70;;;3.45;;
64395;SDS011;50717;53.360;6.290;2022-08-11T08:19:38;7.03;;;3.42;;
64395;SDS011;50717;53.360;6.290;2022-08-11T08:22:09;6.10;;;3.40;;
64395;SDS011;50717;53.360;6.290;2022-08-11T08:24:36;6.15;;;3.28;;
64395;SDS011;50717;53.360;6.290;2022-08-11T08:27:05;8.25;;;3.30;;
64395;SDS011;50717;53.360;6.290;2022-08-11T08:29:34;6.28;;;3.13;;
64395;SDS011;50717;53.360;6.290;2022-08-11T08:32:20;6.20;;;3.42;;
64395;SDS011;50717;53.360;6.290;2022-08-11T08:34:48;7.97;;;3.30;;
64395;SDS011;50717;53.360;6.290;2022-08-11T08:37:17;5.40;;;3.50;;
64395;SDS011;50717;53.360;6.290;2022-08-11T08:39:44;7.57;;;3.67;;
64395;SDS011;50717;53.360;6.290;2022-08-11T08:42:11;6.28;;;3.58;;
64395;SDS011;50717;53.360;6.290;2022-08-11T08:44:42;8.05;;;3.03;;
64395;SDS011;50717;53.360;6.290;2022-08-11T08:47:14;6.18;;;3.03;;
64395;SDS011;50717;53.360;6.290;2022-08-11T08:49:49;6.72;;;2.90;;
64395;SDS011;50717;53.360;6.290;2022-08-11T08:52:19;5.57;;;3.10;;
64395;SDS011;50717;53.360;6.290;2022-08-11T08:54:51;5.63;;;3.35;;
64395;SDS011;50717;53.360;6.290;2022-08-11T08:57:21;7.25;;;3.65;;
64395;SDS011;50717;53.360;6.290;2022-08-11T08:59:48;8.18;;;3.20;;
64395;SDS011;50717;53.360;6.290;2022-08-11T09:02:23;4.20;;;2.63;;
64395;SDS011;50717;53.360;6.290;2022-08-11T09:04:52;4.05;;;2.70;;
64395;SDS011;50717;53.360;6.290;2022-08-11T09:07:19;4.10;;;2.55;;
64395;SDS011;50717;53.360;6.290;2022-08-11T09:09:51;14.52;;;2.25;;
64395;SDS011;50717;53.360;6.290;2022-08-11T09:12:21;8.13;;;2.53;;
64395;SDS011;50717;53.360;6.290;2022-08-11T09:14:55;5.75;;;2.20;;
64395;SDS011;50717;53.360;6.290;2022-08-11T09:17:25;4.18;;;2.60;;
64395;SDS011;50717;53.360;6.290;2022-08-11T09:19:59;5.75;;;2.47;;
64395;SDS011;50717;53.360;6.290;2022-08-11T09:22:32;4.35;;;2.08;;
64395;SDS011;50717;53.360;6.290;2022-08-11T09:25:18;4.22;;;2.00;;
64395;SDS011;50717;53.360;6.290;2022-08-11T09:28:09;5.38;;;2.10;;
64395;SDS011;50717;53.360;6.290;2022-08-11T09:30:35;7.32;;;2.65;;
64395;SDS011;50717;53.360;6.290;2022-08-11T09:33:03;5.95;;;2.30;;
64395;SDS011;50717;53.360;6.290;2022-08-11T09:35:30;4.85;;;2.42;;
64395;SDS011;50717;53.360;6.290;2022-08-11T09:38:01;6.22;;;2.72;;
64395;SDS011;50717;53.360;6.290;2022-08-11T09:40:47;4.00;;;1.95;;
64395;SDS011;50717;53.360;6.290;2022-08-11T09:43:16;3.05;;;2.20;;
64395;SDS011;50717;53.360;6.290;2022-08-11T09:46:02;7.40;;;1.95;;
64395;SDS011;50717;53.360;6.290;2022-08-11T09:48:30;3.97;;;2.15;;
64395;SDS011;50717;53.360;6.290;2022-08-11T09:51:00;3.38;;;2.25;;
64395;SDS011;50717;53.360;6.290;2022-08-11T09:53:27;5.00;;;2.00;;
64395;SDS011;50717;53.360;6.290;2022-08-11T09:55:56;4.57;;;2.15;;
64395;SDS011;50717;53.360;6.290;2022-08-11T09:58:22;19.58;;;2.65;;
64395;SDS011;50717;53.360;6.290;2022-08-11T10:00:49;3.88;;;2.17;;
64395;SDS011;50717;53.360;6.290;2022-08-11T10:05:54;5.65;;;2.20;;
64395;SDS011;50717;53.360;6.290;2022-08-11T10:08:41;3.35;;;2.00;;
64395;SDS011;50717;53.360;6.290;2022-08-11T10:11:11;6.03;;;2.20;;
64395;SDS011;50717;53.360;6.290;2022-08-11T10:13:43;5.38;;;2.20;;
64395;SDS011;50717;53.360;6.290;2022-08-11T10:16:29;4.20;;;2.05;;
64395;SDS011;50717;53.360;6.290;2022-08-11T10:19:00;5.15;;;1.98;;
64395;SDS011;50717;53.360;6.290;2022-08-11T10:21:30;5.03;;;1.80;;
64395;SDS011;50717;53.360;6.290;2022-08-11T10:24:00;3.88;;;1.83;;
64395;SDS011;50717;53.360;6.290;2022-08-11T10:26:48;2.65;;;1.83;;
64395;SDS011;50717;53.360;6.290;2022-08-11T10:29:25;2.50;;;1.80;;
64395;SDS011;50717;53.360;6.290;2022-08-11T10:32:12;3.60;;;1.85;;
64395;SDS011;50717;53.360;6.290;2022-08-11T10:35:00;5.95;;;1.90;;
64395;SDS011;50717;53.360;6.290;2022-08-11T10:37:28;4.05;;;1.70;;
64395;SDS011;50717;53.360;6.290;2022-08-11T10:40:01;5.35;;;1.80;;
64395;SDS011;50717;53.360;6.290;2022-08-11T10:42:30;4.20;;;2.17;;
64395;SDS011;50717;53.360;6.290;2022-08-11T10:45:14;13.40;;;5.67;;
64395;SDS011;50717;53.360;6.290;2022-08-11T10:48:00;6.97;;;4.93;;
64395;SDS011;50717;53.360;6.290;2022-08-11T10:50:27;10.05;;;6.38;;
64395;SDS011;50717;53.360;6.290;2022-08-11T10:53:13;11.05;;;6.78;;
64395;SDS011;50717;53.360;6.290;2022-08-11T10:55:58;9.98;;;5.97;;
64395;SDS011;50717;53.360;6.290;2022-08-11T10:58:42;10.98;;;6.03;;
64395;SDS011;50717;53.360;6.290;2022-08-11T11:01:12;6.28;;;5.45;;
64395;SDS011;50717;53.360;6.290;2022-08-11T11:03:39;8.98;;;5.00;;
64395;SDS011;50717;53.360;6.290;2022-08-11T11:09:15;8.32;;;4.60;;
64395;SDS011;50717;53.360;6.290;2022-08-11T11:12:43;6.53;;;4.85;;
64395;SDS011;50717;53.360;6.290;2022-08-11T11:15:03;9.57;;;4.38;;
64395;SDS011;50717;53.360;6.290;2022-08-11T11:18:00;10.65;;;4.30;;
64395;SDS011;50717;53.360;6.290;2022-08-11T11:20:38;8.52;;;5.18;;
64395;SDS011;50717;53.360;6.290;2022-08-11T11:23:35;8.00;;;4.82;;
64395;SDS011;50717;53.360;6.290;2022-08-11T11:26:30;7.60;;;5.30;;
64395;SDS011;50717;53.360;6.290;2022-08-11T11:37:33;7.75;;;4.95;;
64395;SDS011;50717;53.360;6.290;2022-08-11T11:39:59;6.97;;;3.90;;
64395;SDS011;50717;53.360;6.290;2022-08-11T11:42:27;5.25;;;3.58;;
64395;SDS011;50717;53.360;6.290;2022-08-11T11:44:53;8.73;;;4.43;;
64395;SDS011;50717;53.360;6.290;2022-08-11T11:47:19;4.72;;;3.20;;
64395;SDS011;50717;53.360;6.290;2022-08-11T11:49:47;6.00;;;2.72;;
64395;SDS011;50717;53.360;6.290;2022-08-11T11:52:15;4.60;;;2.50;;
64395;SDS011;50717;53.360;6.290;2022-08-11T11:54:43;6.72;;;3.00;;
64395;SDS011;50717;53.360;6.290;2022-08-11T11:57:14;5.95;;;3.20;;
64395;SDS011;50717;53.360;6.290;2022-08-11T12:00:00;4.65;;;2.10;;
64395;SDS011;50717;53.360;6.290;2022-08-11T12:02:47;4.63;;;2.10;;
64395;SDS011;50717;53.360;6.290;2022-08-11T12:05:13;4.75;;;2.10;;
64395;SDS011;50717;53.360;6.290;2022-08-11T12:07:39;6.47;;;2.05;;
64395;SDS011;50717;53.360;6.290;2022-08-11T12:10:24;6.97;;;2.13;;
64395;SDS011;50717;53.360;6.290;2022-08-11T12:12:50;7.82;;;2.08;;
64395;SDS011;50717;53.360;6.290;2022-08-11T12:15:35;7.95;;;2.03;;
64395;SDS011;50717;53.360;6.290;2022-08-11T12:18:01;8.75;;;2.20;;
64395;SDS011;50717;53.360;6.290;2022-08-11T12:20:28;14.23;;;1.73;;
64395;SDS011;50717;53.360;6.290;2022-08-11T12:22:55;5.60;;;1.95;;
64395;SDS011;50717;53.360;6.290;2022-08-11T12:25:40;6.57;;;2.05;;
64395;SDS011;50717;53.360;6.290;2022-08-11T12:28:26;7.32;;;2.30;;
64395;SDS011;50717;53.360;6.290;2022-08-11T12:30:53;5.97;;;2.20;;
64395;SDS011;50717;53.360;6.290;2022-08-11T12:33:19;4.35;;;2.00;;
64395;SDS011;50717;53.360;6.290;2022-08-11T12:35:46;7.50;;;2.17;;
64395;SDS011;50717;53.360;6.290;2022-08-11T12:38:16;3.25;;;1.90;;
64395;SDS011;50717;53.360;6.290;2022-08-11T12:40:45;9.77;;;2.42;;
64395;SDS011;50717;53.360;6.290;2022-08-11T12:43:31;6.60;;;2.08;;
64395;SDS011;50717;53.360;6.290;2022-08-11T12:46:20;4.40;;;2.22;;
64395;SDS011;50717;53.360;6.290;2022-08-11T12:48:49;5.40;;;1.70;;
64395;SDS011;50717;53.360;6.290;2022-08-11T12:51:40;7.95;;;1.80;;
64395;SDS011;50717;53.360;6.290;2022-08-11T12:57:05;3.55;;;1.75;;
64395;SDS011;50717;53.360;6.290;2022-08-11T12:59:52;5.05;;;2.10;;
64395;SDS011;50717;53.360;6.290;2022-08-11T13:02:38;3.67;;;2.28;;
64395;SDS011;50717;53.360;6.290;2022-08-11T13:05:23;5.35;;;2.58;;
64395;SDS011;50717;53.360;6.290;2022-08-11T13:07:49;7.97;;;2.22;;
64395;SDS011;50717;53.360;6.290;2022-08-11T13:10:16;9.48;;;2.20;;
64395;SDS011;50717;53.360;6.290;2022-08-11T13:13:05;10.30;;;2.65;;
64395;SDS011;50717;53.360;6.290;2022-08-11T13:15:32;3.47;;;1.92;;
64395;SDS011;50717;53.360;6.290;2022-08-11T13:18:00;4.20;;;2.28;;
64395;SDS011;50717;53.360;6.290;2022-08-11T13:20:27;6.97;;;2.40;;
64395;SDS011;50717;53.360;6.290;2022-08-11T13:22:54;6.38;;;2.30;;
64395;SDS011;50717;53.360;6.290;2022-08-11T13:25:23;14.05;;;2.30;;
64395;SDS011;50717;53.360;6.290;2022-08-11T13:27:52;6.25;;;2.15;;
64395;SDS011;50717;53.360;6.290;2022-08-11T13:30:22;4.55;;;2.50;;
64395;SDS011;50717;53.360;6.290;2022-08-11T13:33:09;4.55;;;2.53;;
64395;SDS011;50717;53.360;6.290;2022-08-11T13:35:36;5.03;;;2.42;;
64395;SDS011;50717;53.360;6.290;2022-08-11T13:38:03;15.90;;;3.05;;
64395;SDS011;50717;53.360;6.290;2022-08-11T13:40:30;7.85;;;2.28;;
64395;SDS011;50717;53.360;6.290;2022-08-11T13:42:56;6.00;;;2.45;;
64395;SDS011;50717;53.360;6.290;2022-08-11T13:45:24;5.85;;;2.05;;
64395;SDS011;50717;53.360;6.290;2022-08-11T13:47:52;4.53;;;2.30;;
64395;SDS011;50717;53.360;6.290;2022-08-11T13:50:23;8.35;;;2.35;;
64395;SDS011;50717;53.360;6.290;2022-08-11T13:53:09;4.03;;;1.73;;
64395;SDS011;50717;53.360;6.290;2022-08-11T13:55:37;5.63;;;1.67;;
64395;SDS011;50717;53.360;6.290;2022-08-11T13:58:05;10.05;;;1.80;;
64395;SDS011;50717;53.360;6.290;2022-08-11T14:00:35;5.68;;;1.40;;
64395;SDS011;50717;53.360;6.290;2022-08-11T14:03:01;3.05;;;1.48;;
64395;SDS011;50717;53.360;6.290;2022-08-11T14:05:35;4.97;;;1.45;;
64395;SDS011;50717;53.360;6.290;2022-08-11T14:08:06;2.15;;;1.42;;
64395;SDS011;50717;53.360;6.290;2022-08-11T14:10:37;3.25;;;1.40;;
64395;SDS011;50717;53.360;6.290;2022-08-11T14:13:11;3.75;;;1.30;;
64395;SDS011;50717;53.360;6.290;2022-08-11T14:16:00;7.85;;;1.90;;
64395;SDS011;50717;53.360;6.290;2022-08-11T14:18:31;4.20;;;1.60;;
64395;SDS011;50717;53.360;6.290;2022-08-11T14:21:02;1.50;;;1.30;;
64395;SDS011;50717;53.360;6.290;2022-08-11T14:23:49;5.50;;;1.80;;
64395;SDS011;50717;53.360;6.290;2022-08-11T14:26:19;6.95;;;1.58;;
64395;SDS011;50717;53.360;6.290;2022-08-11T14:31:32;2.85;;;1.33;;
64395;SDS011;50717;53.360;6.290;2022-08-11T14:34:02;3.00;;;1.40;;
64395;SDS011;50717;53.360;6.290;2022-08-11T14:36:35;4.32;;;1.30;;
64395;SDS011;50717;53.360;6.290;2022-08-11T14:39:07;6.93;;;1.48;;
64395;SDS011;50717;53.360;6.290;2022-08-11T14:41:37;5.25;;;1.10;;
64395;SDS011;50717;53.360;6.290;2022-08-11T14:44:24;3.75;;;1.40;;
64395;SDS011;50717;53.360;6.290;2022-08-11T14:47:09;5.60;;;1.87;;
64395;SDS011;50717;53.360;6.290;2022-08-11T14:49:38;6.45;;;1.65;;
64395;SDS011;50717;53.360;6.290;2022-08-11T14:52:07;3.33;;;1.70;;
64395;SDS011;50717;53.360;6.290;2022-08-11T14:54:44;2.28;;;1.33;;
64395;SDS011;50717;53.360;6.290;2022-08-11T14:57:31;5.82;;;1.33;;
64395;SDS011;50717;53.360;6.290;2022-08-11T15:00:00;4.30;;;1.20;;
64395;SDS011;50717;53.360;6.290;2022-08-11T15:02:28;4.40;;;1.50;;
64395;SDS011;50717;53.360;6.290;2022-08-11T15:05:13;4.80;;;1.35;;
64395;SDS011;50717;53.360;6.290;2022-08-11T15:07:39;5.95;;;1.50;;
64395;SDS011;50717;53.360;6.290;2022-08-11T15:10:07;4.80;;;1.77;;
64395;SDS011;50717;53.360;6.290;2022-08-11T15:12:35;6.15;;;1.40;;
64395;SDS011;50717;53.360;6.290;2022-08-11T15:15:04;2.13;;;1.40;;
64395;SDS011;50717;53.360;6.290;2022-08-11T15:17:50;2.92;;;1.48;;
64395;SDS011;50717;53.360;6.290;2022-08-11T15:20:19;5.43;;;1.60;;
64395;SDS011;50717;53.360;6.290;2022-08-11T15:23:03;3.72;;;1.70;;
64395;SDS011;50717;53.360;6.290;2022-08-11T15:25:49;3.28;;;1.42;;
64395;SDS011;50717;53.360;6.290;2022-08-11T15:28:30;4.88;;;1.60;;
64395;SDS011;50717;53.360;6.290;2022-08-11T15:31:18;5.00;;;1.70;;
64395;SDS011;50717;53.360;6.290;2022-08-11T15:33:49;4.68;;;1.40;;
64395;SDS011;50717;53.360;6.290;2022-08-11T15:36:36;4.43;;;1.30;;
64395;SDS011;50717;53.360;6.290;2022-08-11T15:39:31;7.15;;;2.38;;
64395;SDS011;50717;53.360;6.290;2022-08-11T15:42:13;6.72;;;1.63;;
64395;SDS011;50717;53.360;6.290;2022-08-11T15:45:02;7.95;;;1.55;;
64395;SDS011;50717;53.360;6.290;2022-08-11T15:48:00;6.97;;;1.65;;
64395;SDS011;50717;53.360;6.290;2022-08-11T15:50:31;4.60;;;1.42;;
64395;SDS011;50717;53.360;6.290;2022-08-11T15:53:03;2.20;;;1.00;;
64395;SDS011;50717;53.360;6.290;2022-08-11T15:55:53;5.32;;;1.30;;
64395;SDS011;50717;53.360;6.290;2022-08-11T15:58:20;5.80;;;1.60;;
64395;SDS011;50717;53.360;6.290;2022-08-11T16:01:07;5.05;;;1.50;;
64395;SDS011;50717;53.360;6.290;2022-08-11T16:03:59;8.07;;;1.60;;
64395;SDS011;50717;53.360;6.290;2022-08-11T16:06:38;2.85;;;1.45;;
64395;SDS011;50717;53.360;6.290;2022-08-11T16:09:43;5.78;;;1.77;;
64395;SDS011;50717;53.360;6.290;2022-08-11T16:12:13;4.30;;;1.55;;
64395;SDS011;50717;53.360;6.290;2022-08-11T16:14:47;3.67;;;1.58;;
64395;SDS011;50717;53.360;6.290;2022-08-11T16:17:36;2.60;;;1.27;;
64395;SDS011;50717;53.360;6.290;2022-08-11T16:20:08;7.43;;;1.70;;
64395;SDS011;50717;53.360;6.290;2022-08-11T16:22:36;6.28;;;1.70;;
64395;SDS011;50717;53.360;6.290;2022-08-11T16:25:13;3.38;;;1.55;;
64395;SDS011;50717;53.360;6.290;2022-08-11T16:27:51;4.68;;;1.98;;
64395;SDS011;50717;53.360;6.290;2022-08-11T16:30:36;1.70;;;1.60;;
64395;SDS011;50717;53.360;6.290;2022-08-11T16:33:06;3.17;;;1.80;;
64395;SDS011;50717;53.360;6.290;2022-08-11T16:35:34;9.40;;;1.90;;
64395;SDS011;50717;53.360;6.290;2022-08-11T16:38:21;7.75;;;1.85;;
64395;SDS011;50717;53.360;6.290;2022-08-11T16:41:00;4.00;;;1.98;;
64395;SDS011;50717;53.360;6.290;2022-08-11T16:43:33;3.95;;;1.75;;
64395;SDS011;50717;53.360;6.290;2022-08-11T16:46:22;2.55;;;1.70;;
64395;SDS011;50717;53.360;6.290;2022-08-11T16:51:40;4.95;;;1.90;;
64395;SDS011;50717;53.360;6.290;2022-08-11T16:54:06;3.58;;;1.77;;
64395;SDS011;50717;53.360;6.290;2022-08-11T16:59:14;6.93;;;1.90;;
64395;SDS011;50717;53.360;6.290;2022-08-11T17:01:53;4.95;;;2.22;;
64395;SDS011;50717;53.360;6.290;2022-08-11T17:04:30;3.55;;;2.00;;
64395;SDS011;50717;53.360;6.290;2022-08-11T17:07:19;3.15;;;1.83;;
64395;SDS011;50717;53.360;6.290;2022-08-11T17:10:05;5.57;;;2.13;;
64395;SDS011;50717;53.360;6.290;2022-08-11T17:12:52;5.22;;;1.85;;
64395;SDS011;50717;53.360;6.290;2022-08-11T17:15:40;5.80;;;2.08;;
64395;SDS011;50717;53.360;6.290;2022-08-11T17:18:25;4.80;;;2.20;;
64395;SDS011;50717;53.360;6.290;2022-08-11T17:21:05;3.65;;;1.95;;
64395;SDS011;50717;53.360;6.290;2022-08-11T17:23:34;4.57;;;2.33;;
64395;SDS011;50717;53.360;6.290;2022-08-11T17:26:20;4.75;;;2.03;;
64395;SDS011;50717;53.360;6.290;2022-08-11T17:32:20;4.38;;;2.20;;
64395;SDS011;50717;53.360;6.290;2022-08-11T17:35:14;5.63;;;2.08;;
64395;SDS011;50717;53.360;6.290;2022-08-11T17:38:17;4.07;;;2.47;;
64395;SDS011;50717;53.360;6.290;2022-08-11T17:40:46;3.53;;;2.22;;
64395;SDS011;50717;53.360;6.290;2022-08-11T17:43:35;5.65;;;2.03;;
64395;SDS011;50717;53.360;6.290;2022-08-11T17:46:20;2.77;;;2.27;;
64395;SDS011;50717;53.360;6.290;2022-08-11T17:49:06;8.18;;;2.50;;
64395;SDS011;50717;53.360;6.290;2022-08-11T17:51:34;7.30;;;2.10;;
64395;SDS011;50717;53.360;6.290;2022-08-11T17:54:20;5.13;;;2.33;;
64395;SDS011;50717;53.360;6.290;2022-08-11T17:57:05;6.55;;;2.33;;
64395;SDS011;50717;53.360;6.290;2022-08-11T17:59:51;4.07;;;2.10;;
64395;SDS011;50717;53.360;6.290;2022-08-11T18:05:05;6.28;;;2.10;;
64395;SDS011;50717;53.360;6.290;2022-08-11T18:07:31;7.82;;;2.63;;
64395;SDS011;50717;53.360;6.290;2022-08-11T18:10:17;6.85;;;2.10;;
64395;SDS011;50717;53.360;6.290;2022-08-11T18:13:03;5.53;;;2.20;;
64395;SDS011;50717;53.360;6.290;2022-08-11T18:15:48;5.05;;;2.00;;
64395;SDS011;50717;53.360;6.290;2022-08-11T18:18:33;4.05;;;2.08;;
64395;SDS011;50717;53.360;6.290;2022-08-11T18:21:18;4.95;;;2.28;;
64395;SDS011;50717;53.360;6.290;2022-08-11T18:24:08;4.32;;;2.20;;
64395;SDS011;50717;53.360;6.290;2022-08-11T18:26:57;5.47;;;2.00;;
64395;SDS011;50717;53.360;6.290;2022-08-11T18:29:46;4.72;;;1.83;;
64395;SDS011;50717;53.360;6.290;2022-08-11T18:32:34;8.02;;;2.10;;
64395;SDS011;50717;53.360;6.290;2022-08-11T18:35:20;2.85;;;2.10;;
64395;SDS011;50717;53.360;6.290;2022-08-11T18:38:07;5.37;;;2.27;;
64395;SDS011;50717;53.360;6.290;2022-08-11T18:40:53;12.73;;;2.08;;
64395;SDS011;50717;53.360;6.290;2022-08-11T18:43:40;9.15;;;2.28;;
64395;SDS011;50717;53.360;6.290;2022-08-11T18:46:26;8.25;;;1.92;;
64395;SDS011;50717;53.360;6.290;2022-08-11T18:49:16;8.07;;;2.10;;
64395;SDS011;50717;53.360;6.290;2022-08-11T18:52:04;23.02;;;2.92;;
64395;SDS011;50717;53.360;6.290;2022-08-11T18:54:51;13.32;;;2.95;;
64395;SDS011;50717;53.360;6.290;2022-08-11T18:57:39;16.15;;;2.63;;
64395;SDS011;50717;53.360;6.290;2022-08-11T19:00:28;13.88;;;2.70;;
64395;SDS011;50717;53.360;6.290;2022-08-11T19:03:14;14.48;;;2.50;;
64395;SDS011;50717;53.360;6.290;2022-08-11T19:06:03;12.23;;;2.67;;
64395;SDS011;50717;53.360;6.290;2022-08-11T19:08:52;15.23;;;2.80;;
64395;SDS011;50717;53.360;6.290;2022-08-11T19:11:42;12.18;;;2.47;;
64395;SDS011;50717;53.360;6.290;2022-08-11T19:14:29;8.73;;;3.13;;
64395;SDS011;50717;53.360;6.290;2022-08-11T19:17:15;4.82;;;2.20;;
64395;SDS011;50717;53.360;6.290;2022-08-11T19:22:47;8.38;;;2.75;;
64395;SDS011;50717;53.360;6.290;2022-08-11T19:25:31;6.47;;;2.58;;
64395;SDS011;50717;53.360;6.290;2022-08-11T19:28:17;7.90;;;2.53;;
64395;SDS011;50717;53.360;6.290;2022-08-11T19:31:03;11.88;;;2.78;;
64395;SDS011;50717;53.360;6.290;2022-08-11T19:33:48;14.75;;;2.83;;
64395;SDS011;50717;53.360;6.290;2022-08-11T19:36:33;18.58;;;3.30;;
64395;SDS011;50717;53.360;6.290;2022-08-11T19:39:19;19.30;;;3.05;;
64395;SDS011;50717;53.360;6.290;2022-08-11T19:42:05;16.50;;;2.90;;
64395;SDS011;50717;53.360;6.290;2022-08-11T19:44:51;9.52;;;3.00;;
64395;SDS011;50717;53.360;6.290;2022-08-11T19:47:37;6.20;;;2.60;;
64395;SDS011;50717;53.360;6.290;2022-08-11T19:50:21;11.32;;;2.40;;